createdAt,value
2022-08-02T00:00:58.724Z,97642.06
2022-08-02T00:03:26.413Z,97640.81
2022-08-02T00:05:54.423Z,97631.75
2022-08-02T00:08:22.477Z,97632.56
2022-08-02T00:10:51.584Z,97639.00
2022-08-02T00:13:19.359Z,97640.22
2022-08-02T00:15:47.027Z,97644.75
2022-08-02T00:18:14.698Z,97639.75
2022-08-02T00:20:42.518Z,97640.75
2022-08-02T00:23:10.211Z,97634.56
2022-08-02T00:25:54.887Z,97634.25
2022-08-02T00:28:27.367Z,97636.34
2022-08-02T00:30:56.237Z,97636.63
2022-08-02T00:34:27.546Z,97639.28
2022-08-02T00:36:11.603Z,97639.47
2022-08-02T00:38:39.275Z,97636.25
2022-08-02T00:41:13.336Z,97637.53
2022-08-02T00:43:42.448Z,97642.75
2022-08-02T00:46:10.354Z,97642.34
2022-08-02T00:48:41.416Z,97643.03
2022-08-02T00:51:10.981Z,97653.34
2022-08-02T00:53:38.973Z,97652.00
2022-08-02T00:56:06.799Z,97650.75
2022-08-02T00:58:34.945Z,97654.41
2022-08-02T01:01:04.066Z,97641.63
2022-08-02T01:03:31.772Z,97647.19
2022-08-02T01:06:10.975Z,97654.84
2022-08-02T01:08:39.469Z,97646.91
2022-08-02T01:11:07.238Z,97649.81
2022-08-02T01:13:34.948Z,97646.91
2022-08-02T01:16:10.116Z,97646.50
2022-08-02T01:18:40.513Z,97641.94
2022-08-02T01:21:18.420Z,97638.22
2022-08-02T01:24:13.437Z,97637.41
2022-08-02T01:26:45.214Z,97634.69
2022-08-02T01:29:19.120Z,97628.09
2022-08-02T01:31:51.062Z,97633.66
2022-08-02T01:34:21.866Z,97631.75
2022-08-02T01:36:53.607Z,97635.66
2022-08-02T01:39:27.541Z,97635.88
2022-08-02T01:42:01.646Z,97638.34
2022-08-02T01:44:38.295Z,97640.41
2022-08-02T01:47:09.165Z,97636.75
2022-08-02T01:49:38.918Z,97636.53
2022-08-02T01:52:23.922Z,97629.28
2022-08-02T01:54:55.416Z,97632.31
2022-08-02T01:57:24.348Z,97635.19
2022-08-02T01:59:55.084Z,97640.34
2022-08-02T02:02:23.775Z,97635.81
2022-08-02T02:04:52.631Z,97640.81
2022-08-02T02:07:21.812Z,97640.53
2022-08-02T02:09:50.640Z,97644.09
2022-08-02T02:12:20.267Z,97636.56
2022-08-02T02:14:51.393Z,97638.41
2022-08-02T02:18:11.342Z,97645.69
2022-08-02T02:20:12.178Z,97647.75
2022-08-02T02:22:40.111Z,97647.03
2022-08-02T02:25:11.335Z,97645.72
2022-08-02T02:27:41.121Z,97637.91
2022-08-02T02:30:14.114Z,97651.44
2022-08-02T02:32:45.587Z,97660.41
2022-08-02T02:35:15.102Z,97661.19
2022-08-02T02:37:45.113Z,97652.59
2022-08-02T02:40:13.549Z,97649.69
2022-08-02T02:42:43.051Z,97658.03
2022-08-02T02:45:18.535Z,97660.88
2022-08-02T02:47:49.706Z,97665.09
2022-08-02T02:50:18.046Z,97672.50
2022-08-02T02:52:46.259Z,97668.69
2022-08-02T02:55:14.301Z,97667.66
2022-08-02T02:57:42.840Z,97679.03
2022-08-02T03:00:12.970Z,97678.81
2022-08-02T03:02:41.777Z,97672.06
2022-08-02T03:05:12.433Z,97681.25
2022-08-02T03:07:40.645Z,97683.56
2022-08-02T03:10:09.773Z,97688.44
2022-08-02T03:12:37.711Z,97688.56
2022-08-02T03:15:08.308Z,97691.56
2022-08-02T03:17:44.064Z,97684.03
2022-08-02T03:20:15.824Z,97700.19
2022-08-02T03:22:44.724Z,97703.44
2022-08-02T03:25:13.472Z,97702.06
2022-08-02T03:27:41.362Z,97705.88
2022-08-02T03:30:11.684Z,97701.88
2022-08-02T03:32:40.584Z,97701.69
2022-08-02T03:35:10.695Z,97699.38
2022-08-02T03:37:40.303Z,97705.72
2022-08-02T03:40:10.300Z,97701.38
2022-08-02T03:42:39.308Z,97695.78
2022-08-02T03:45:09.626Z,97694.91
2022-08-02T03:47:39.268Z,97705.28
2022-08-02T03:50:07.858Z,97708.31
2022-08-02T03:52:35.871Z,97709.16
2022-08-02T03:55:05.537Z,97704.06
2022-08-02T03:57:33.509Z,97713.47
2022-08-02T04:00:01.330Z,97721.53
2022-08-02T04:02:28.975Z,97727.78
2022-08-02T04:04:56.671Z,97716.25
2022-08-02T04:08:32.681Z,97716.81
2022-08-02T04:10:13.887Z,97723.97
2022-08-02T04:12:41.772Z,97726.66
2022-08-02T04:15:11.689Z,97723.78
2022-08-02T04:17:42.130Z,97728.00
2022-08-02T04:20:13.310Z,97723.34
2022-08-02T04:22:48.497Z,97720.66
2022-08-02T04:25:17.919Z,97730.88
2022-08-02T04:27:50.169Z,97727.56
2022-08-02T04:30:34.232Z,97731.47
2022-08-02T04:33:02.690Z,97725.75
2022-08-02T04:35:33.396Z,97723.53
2022-08-02T04:38:05.664Z,97716.69
2022-08-02T04:40:39.567Z,97721.63
2022-08-02T04:43:07.441Z,97730.72
2022-08-02T04:45:35.410Z,97725.25
2022-08-02T04:48:05.378Z,97732.56
2022-08-02T04:50:33.706Z,97736.59
2022-08-02T04:53:01.418Z,97727.94
2022-08-02T04:55:30.052Z,97735.44
2022-08-02T04:58:09.705Z,97739.44
2022-08-02T05:00:50.567Z,97741.28
2022-08-02T05:03:19.077Z,97737.03
2022-08-02T05:05:50.910Z,97737.81
2022-08-02T05:08:21.243Z,97739.53
2022-08-02T05:10:49.815Z,97750.66
2022-08-02T05:13:18.841Z,97751.56
2022-08-02T05:15:49.371Z,97757.50
2022-08-02T05:18:17.128Z,97761.78
2022-08-02T05:20:48.020Z,97756.13
2022-08-02T05:23:15.735Z,97765.69
2022-08-02T05:25:43.570Z,97764.06
2022-08-02T05:28:11.901Z,97772.81
2022-08-02T05:30:41.103Z,97772.81
2022-08-02T05:33:09.028Z,97766.09
2022-08-02T05:35:36.797Z,97771.88
2022-08-02T05:38:04.944Z,97760.06
2022-08-02T05:40:37.960Z,97755.97
2022-08-02T05:43:23.356Z,97756.16
2022-08-02T05:45:54.479Z,97750.53
2022-08-02T05:48:25.470Z,97753.50
2022-08-02T05:51:02.602Z,97758.00
2022-08-02T05:53:37.623Z,97754.19
2022-08-02T05:56:13.303Z,97754.94
2022-08-02T05:58:54.838Z,97754.28
2022-08-02T06:01:29.912Z,97763.91
2022-08-02T06:03:59.305Z,97758.78
2022-08-02T06:06:27.283Z,97760.28
2022-08-02T06:09:00.099Z,97760.94
2022-08-02T06:11:37.873Z,97761.06
2022-08-02T06:14:07.058Z,97761.81
2022-08-02T06:16:42.156Z,97764.66
2022-08-02T06:19:10.686Z,97767.63
2022-08-02T06:22:31.598Z,97764.25
2022-08-02T06:24:28.213Z,97772.84
2022-08-02T06:26:57.518Z,97769.75
2022-08-02T06:29:25.941Z,97776.53
2022-08-02T06:31:55.361Z,97766.69
2022-08-02T06:34:23.003Z,97770.94
2022-08-02T06:36:53.646Z,97766.09
2022-08-02T06:39:25.454Z,97771.31
2022-08-02T06:41:55.567Z,97775.09
2022-08-02T06:47:13.519Z,97778.06
2022-08-02T06:49:52.632Z,97773.97
2022-08-02T06:52:27.887Z,97775.63
2022-08-02T06:54:57.013Z,97772.06
2022-08-02T06:57:24.698Z,97768.81
2022-08-02T06:59:52.441Z,97771.13
2022-08-02T07:02:31.385Z,97776.03
2022-08-02T07:04:59.304Z,97769.63
2022-08-02T07:07:27.687Z,97769.22
2022-08-02T07:10:01.232Z,97772.41
2022-08-02T07:12:31.175Z,97763.50
2022-08-02T07:14:59.294Z,97771.97
2022-08-02T07:17:28.791Z,97762.88
2022-08-02T07:19:56.530Z,97769.31
2022-08-02T07:22:26.815Z,97764.06
2022-08-02T07:24:55.610Z,97767.03
2022-08-02T07:27:23.488Z,97773.66
2022-08-02T07:29:51.424Z,97769.09
2022-08-02T07:32:20.714Z,97770.13
2022-08-02T07:34:52.944Z,97768.66
2022-08-02T07:37:31.917Z,97777.78
2022-08-02T07:40:20.352Z,97761.19
2022-08-02T07:42:49.665Z,97767.25
2022-08-02T07:45:17.399Z,97769.41
2022-08-02T07:47:45.700Z,97771.97
2022-08-02T07:50:16.475Z,97768.59
2022-08-02T07:52:45.254Z,97771.78
2022-08-02T07:55:14.550Z,97768.59
2022-08-02T07:57:46.414Z,97766.25
2022-08-02T08:00:16.157Z,97759.84
2022-08-02T08:02:44.310Z,97754.75
2022-08-02T08:05:12.560Z,97756.66
2022-08-02T08:07:41.615Z,97756.47
2022-08-02T08:10:10.669Z,97751.84
2022-08-02T08:12:38.505Z,97759.44
2022-08-02T08:15:07.393Z,97743.75
2022-08-02T08:17:35.501Z,97748.94
2022-08-02T08:20:03.911Z,97748.78
2022-08-02T08:22:31.873Z,97743.09
2022-08-02T08:25:01.156Z,97743.78
2022-08-02T08:27:28.889Z,97748.03
2022-08-02T08:29:57.132Z,97748.25
2022-08-02T08:32:25.410Z,97751.59
2022-08-02T08:34:53.412Z,97747.47
2022-08-02T08:37:21.131Z,97743.53
2022-08-02T08:40:13.241Z,97742.53
2022-08-02T08:42:50.303Z,97747.38
2022-08-02T08:45:18.310Z,97746.72
2022-08-02T08:47:49.377Z,97744.59
2022-08-02T08:50:24.851Z,97742.19
2022-08-02T08:52:59.295Z,97743.09
2022-08-02T08:55:32.370Z,97740.56
2022-08-02T08:58:00.935Z,97742.28
2022-08-02T09:00:29.729Z,97744.72
2022-08-02T09:02:57.886Z,97745.25
2022-08-02T09:05:25.955Z,97749.13
2022-08-02T09:07:54.432Z,97757.31
2022-08-02T09:10:38.715Z,97753.41
2022-08-02T09:13:37.591Z,97758.50
2022-08-02T09:16:11.265Z,97756.81
2022-08-02T09:18:43.905Z,97760.94
2022-08-02T09:21:11.905Z,97766.38
2022-08-02T09:23:41.003Z,97760.19
2022-08-02T09:26:11.482Z,97758.25
2022-08-02T09:28:40.883Z,97768.09
2022-08-02T09:31:10.676Z,97760.97
2022-08-02T09:33:39.945Z,97752.53
2022-08-02T09:36:09.137Z,97765.09
2022-08-02T09:38:37.996Z,97761.56
2022-08-02T09:41:06.664Z,97760.72
2022-08-02T09:43:58.005Z,97762.69
2022-08-02T09:46:30.610Z,97751.63
2022-08-02T09:49:00.896Z,97752.28
2022-08-02T09:51:31.315Z,97750.59
2022-08-02T09:54:08.422Z,97750.22
2022-08-02T09:56:45.657Z,97759.38
2022-08-02T09:59:15.628Z,97743.81
2022-08-02T10:01:51.296Z,97753.59
2022-08-02T10:04:52.676Z,97751.41
2022-08-02T10:07:22.451Z,97749.13
2022-08-02T10:09:51.124Z,97745.88
2022-08-02T10:12:19.108Z,97738.81
2022-08-02T10:14:51.525Z,97732.75
2022-08-02T10:17:19.852Z,97748.44
2022-08-02T10:20:03.328Z,97746.72
2022-08-02T10:22:32.261Z,97746.22
2022-08-02T10:25:03.225Z,97750.28
2022-08-02T10:27:48.877Z,97734.06
2022-08-02T10:30:25.057Z,97721.16
2022-08-02T10:32:54.549Z,97732.19
2022-08-02T10:35:26.009Z,97728.13
2022-08-02T10:37:57.974Z,97730.59
2022-08-02T10:40:26.881Z,97725.47
2022-08-02T10:42:56.319Z,97724.22
2022-08-02T10:45:25.292Z,97725.28
2022-08-02T10:48:00.658Z,97724.53
2022-08-02T10:50:54.769Z,97713.81
2022-08-02T10:53:26.700Z,97713.88
2022-08-02T10:55:55.279Z,97701.53
2022-08-02T10:58:26.299Z,97693.34
2022-08-02T11:00:59.068Z,97687.34
2022-08-02T11:03:40.025Z,97677.28
2022-08-02T11:06:09.364Z,97671.69
2022-08-02T11:09:32.258Z,97672.78
2022-08-02T11:12:04.070Z,97675.78
2022-08-02T11:14:32.301Z,97681.97
2022-08-02T11:17:14.824Z,97685.78
2022-08-02T11:20:17.905Z,97680.75
2022-08-02T11:22:47.335Z,97672.13
2022-08-02T11:26:01.006Z,97679.84
2022-08-02T11:28:24.719Z,97689.88
2022-08-02T11:30:58.184Z,97676.16
2022-08-02T11:33:33.423Z,97683.06
2022-08-02T11:36:06.208Z,97670.88
2022-08-02T11:38:34.235Z,97675.28
2022-08-02T11:41:06.272Z,97676.66
2022-08-02T11:43:39.541Z,97678.09
2022-08-02T11:46:13.977Z,97679.25
2022-08-02T11:48:44.812Z,97671.81
2022-08-02T11:51:14.666Z,97677.22
2022-08-02T11:53:43.952Z,97684.56
2022-08-02T11:56:11.921Z,97677.84
2022-08-02T11:58:41.830Z,97663.59
2022-08-02T12:01:09.677Z,97658.94
2022-08-02T12:03:38.175Z,97666.59
2022-08-02T12:06:16.373Z,97653.19
2022-08-02T12:08:51.932Z,97660.69
2022-08-02T12:11:22.416Z,97662.25
2022-08-02T12:13:56.455Z,97660.22
2022-08-02T12:16:42.920Z,97659.06
2022-08-02T12:19:19.712Z,97650.94
2022-08-02T12:21:54.994Z,97645.66
2022-08-02T12:24:28.465Z,97650.59
2022-08-02T12:26:56.954Z,97650.16
2022-08-02T12:29:58.789Z,97654.63
2022-08-02T12:32:25.883Z,97644.50
2022-08-02T12:35:02.854Z,97648.09
2022-08-02T12:37:32.171Z,97634.44
2022-08-02T12:39:59.851Z,97637.75
2022-08-02T12:42:27.575Z,97635.41
2022-08-02T12:44:58.968Z,97626.06
2022-08-02T12:47:35.422Z,97629.72
2022-08-02T12:50:15.091Z,97627.25
2022-08-02T12:52:46.967Z,97627.69
2022-08-02T12:55:24.226Z,97623.41
2022-08-02T12:57:54.053Z,97624.03
2022-08-02T13:00:26.322Z,97621.41
2022-08-02T13:02:54.187Z,97629.06
2022-08-02T13:05:21.981Z,97622.31
2022-08-02T13:07:51.444Z,97620.91
2022-08-02T13:10:19.183Z,97621.34
2022-08-02T13:12:46.912Z,97623.91
2022-08-02T13:15:49.724Z,97623.78
2022-08-02T13:18:02.574Z,97617.25
2022-08-02T13:20:30.760Z,97611.81
2022-08-02T13:23:03.812Z,97613.59
2022-08-02T13:25:32.027Z,97612.16
2022-08-02T13:27:59.727Z,97606.38
2022-08-02T13:30:29.189Z,97608.34
2022-08-02T13:33:00.794Z,97608.78
2022-08-02T13:35:28.993Z,97603.88
2022-08-02T13:37:56.618Z,97608.19
2022-08-02T13:40:25.944Z,97612.38
2022-08-02T13:42:53.555Z,97604.84
2022-08-02T13:45:21.314Z,97597.25
2022-08-02T13:48:03.345Z,97593.25
2022-08-02T13:50:32.959Z,97597.91
2022-08-02T13:53:00.603Z,97598.03
2022-08-02T13:55:29.776Z,97581.88
2022-08-02T13:57:57.499Z,97584.19
2022-08-02T14:00:35.588Z,97586.63
2022-08-02T14:03:05.198Z,97581.94
2022-08-02T14:05:38.584Z,97587.13
2022-08-02T14:08:16.535Z,97584.91
2022-08-02T14:10:46.809Z,97580.34
2022-08-02T14:13:14.911Z,97579.78
2022-08-02T14:15:42.954Z,97573.56
2022-08-02T14:18:10.724Z,97576.69
2022-08-02T14:20:38.405Z,97576.59
2022-08-02T14:23:06.712Z,97572.41
2022-08-02T14:25:34.533Z,97570.94
2022-08-02T14:28:03.668Z,97577.25
2022-08-02T14:30:31.825Z,97570.94
2022-08-02T14:32:59.527Z,97568.09
2022-08-02T14:35:27.192Z,97563.31
2022-08-02T14:37:54.821Z,97565.69
2022-08-02T14:40:31.235Z,97563.88
2022-08-02T14:43:00.305Z,97556.00
2022-08-02T14:45:40.009Z,97563.13
2022-08-02T14:48:09.207Z,97556.84
2022-08-02T14:50:37.037Z,97558.78
2022-08-02T14:53:04.697Z,97557.66
2022-08-02T14:55:32.410Z,97561.19
2022-08-02T14:58:00.154Z,97561.41
2022-08-02T15:00:29.579Z,97555.88
2022-08-02T15:02:57.576Z,97559.44
2022-08-02T15:05:25.230Z,97553.69
2022-08-02T15:07:52.878Z,97560.53
2022-08-02T15:10:20.635Z,97557.19
2022-08-02T15:12:48.260Z,97558.06
2022-08-02T15:15:16.029Z,97555.34
2022-08-02T15:17:45.234Z,97547.84
2022-08-02T15:20:25.864Z,97544.63
2022-08-02T15:22:54.067Z,97565.69
2022-08-02T15:25:22.186Z,97556.72
2022-08-02T15:27:49.806Z,97545.00
2022-08-02T15:30:17.919Z,97542.94
2022-08-02T15:32:52.525Z,97548.69
2022-08-02T15:35:21.171Z,97550.53
2022-08-02T15:37:48.829Z,97558.75
2022-08-02T15:40:16.521Z,97555.38
2022-08-02T15:42:44.552Z,97534.13
2022-08-02T15:45:13.202Z,97535.97
2022-08-02T15:47:50.532Z,97543.28
2022-08-02T15:50:21.428Z,97547.34
2022-08-02T15:52:49.173Z,97545.06
2022-08-02T15:55:16.909Z,97548.44
2022-08-02T15:57:44.565Z,97553.25
2022-08-02T16:00:17.838Z,97549.16
2022-08-02T16:02:47.855Z,97560.78
2022-08-02T16:05:17.777Z,97556.09
2022-08-02T16:07:47.268Z,97555.72
2022-08-02T16:10:15.512Z,97548.78
2022-08-02T16:12:43.240Z,97553.63
2022-08-02T16:15:12.510Z,97549.28
2022-08-02T16:17:51.459Z,97558.88
2022-08-02T16:20:22.473Z,97552.66
2022-08-02T16:22:51.580Z,97549.13
2022-08-02T16:25:19.284Z,97544.59
2022-08-02T16:28:06.533Z,97540.22
2022-08-02T16:30:34.861Z,97545.91
2022-08-02T16:33:02.836Z,97543.22
2022-08-02T16:35:30.644Z,97538.19
2022-08-02T16:37:59.723Z,97541.81
2022-08-02T16:40:27.546Z,97542.03
2022-08-02T16:42:55.321Z,97536.31
2022-08-02T16:45:23.123Z,97536.81
2022-08-02T16:47:57.357Z,97538.81
2022-08-02T16:50:28.595Z,97529.59
2022-08-02T16:52:59.156Z,97532.47
2022-08-02T16:55:29.282Z,97530.09
2022-08-02T16:57:58.583Z,97536.34
2022-08-02T17:00:26.714Z,97531.94
2022-08-02T17:02:54.426Z,97524.97
2022-08-02T17:05:37.522Z,97533.56
2022-08-02T17:08:16.961Z,97533.31
2022-08-02T17:10:45.609Z,97535.38
2022-08-02T17:13:13.278Z,97534.97
2022-08-02T17:18:29.608Z,97527.22
2022-08-02T17:20:57.976Z,97526.41
2022-08-02T17:24:05.793Z,97536.56
2022-08-02T17:26:14.786Z,97537.38
2022-08-02T17:29:03.759Z,97532.03
2022-08-02T17:31:43.091Z,97527.34
2022-08-02T17:34:12.428Z,97531.50
2022-08-02T17:36:40.266Z,97528.97
2022-08-02T17:39:09.269Z,97536.88
2022-08-02T17:41:39.070Z,97532.06
2022-08-02T17:44:36.563Z,97533.56
2022-08-02T17:47:06.386Z,97540.09
2022-08-02T17:49:36.226Z,97538.28
2022-08-02T17:52:49.188Z,97539.94
2022-08-02T17:55:02.400Z,97542.16
2022-08-02T17:57:56.987Z,97539.13
2022-08-02T18:00:20.075Z,97535.22
2022-08-02T18:02:52.604Z,97544.75
2022-08-02T18:05:23.023Z,97549.34
2022-08-02T18:07:56.721Z,97541.47
2022-08-02T18:10:30.029Z,97533.41
2022-08-02T18:12:59.339Z,97534.63
2022-08-02T18:15:27.521Z,97542.03
2022-08-02T18:17:57.015Z,97540.25
2022-08-02T18:20:24.991Z,97537.13
2022-08-02T18:22:58.386Z,97540.56
2022-08-02T18:25:37.371Z,97539.81
2022-08-02T18:28:13.210Z,97545.59
2022-08-02T18:30:41.065Z,97543.28
2022-08-02T18:33:57.243Z,97541.97
2022-08-02T18:35:56.645Z,97542.09
2022-08-02T18:38:26.717Z,97542.09
2022-08-02T18:40:54.855Z,97542.75
2022-08-02T18:43:25.462Z,97546.59
2022-08-02T18:46:07.473Z,97543.19
2022-08-02T18:48:46.428Z,97542.63
2022-08-02T18:51:15.825Z,97546.41
2022-08-02T18:53:43.672Z,97540.69
2022-08-02T18:56:20.098Z,97547.78
2022-08-02T18:58:55.129Z,97550.97
2022-08-02T19:01:33.750Z,97557.09
2022-08-02T19:04:04.117Z,97556.50
2022-08-02T19:06:32.267Z,97559.91
2022-08-02T19:09:12.653Z,97566.16
2022-08-02T19:11:48.270Z,97556.69
2022-08-02T19:14:27.395Z,97559.53
2022-08-02T19:16:57.155Z,97567.44
2022-08-02T19:19:28.874Z,97565.13
2022-08-02T19:22:17.710Z,97563.94
2022-08-02T19:24:45.862Z,97569.34
2022-08-02T19:27:14.710Z,97569.47
2022-08-02T19:29:50.815Z,97568.16
2022-08-02T19:32:41.447Z,97562.75
2022-08-02T19:35:28.301Z,97575.72
2022-08-02T19:37:58.998Z,97577.59
2022-08-02T19:40:29.081Z,97581.50
2022-08-02T19:44:23.976Z,97579.47
2022-08-02T19:45:50.561Z,97577.81
2022-08-02T19:48:24.063Z,97584.66
2022-08-02T19:50:56.603Z,97595.31
2022-08-02T19:53:28.515Z,97589.19
2022-08-02T19:56:00.688Z,97597.50
2022-08-02T19:58:30.961Z,97601.13
2022-08-02T20:01:01.537Z,97594.28
2022-08-02T20:03:52.814Z,97600.88
2022-08-02T20:06:17.819Z,97598.28
2022-08-02T20:08:53.368Z,97594.25
2022-08-02T20:11:25.099Z,97597.78
2022-08-02T20:13:52.866Z,97594.88
2022-08-02T20:16:27.726Z,97598.34
2022-08-02T20:18:55.926Z,97597.59
2022-08-02T20:21:36.316Z,97598.66
2022-08-02T20:24:06.139Z,97599.75
2022-08-02T20:26:35.306Z,97599.56
2022-08-02T20:29:03.590Z,97602.00
2022-08-02T20:31:32.777Z,97599.16
2022-08-02T20:34:00.453Z,97605.31
2022-08-02T20:36:28.773Z,97596.59
2022-08-02T20:38:56.651Z,97604.13
2022-08-02T20:41:37.029Z,97600.50
2022-08-02T20:44:15.504Z,97601.09
2022-08-02T20:46:45.915Z,97605.44
2022-08-02T20:49:21.569Z,97598.09
2022-08-02T20:51:52.788Z,97588.41
2022-08-02T20:54:22.271Z,97581.59
2022-08-02T20:56:50.657Z,97584.44
2022-08-02T20:59:21.111Z,97594.66
2022-08-02T21:01:57.000Z,97597.78
2022-08-02T21:04:25.228Z,97600.66
2022-08-02T21:06:53.089Z,97603.63
2022-08-02T21:09:33.043Z,97601.09
2022-08-02T21:12:12.716Z,97598.19
2022-08-02T21:14:40.675Z,97585.84
2022-08-02T21:17:11.451Z,97602.59
2022-08-02T21:19:46.174Z,97600.81
2022-08-02T21:22:14.810Z,97604.72
2022-08-02T21:24:42.736Z,97603.78
2022-08-02T21:27:51.444Z,97608.69
2022-08-02T21:29:57.997Z,97610.16
2022-08-02T21:32:27.018Z,97602.75
2022-08-02T21:34:54.681Z,97603.47
2022-08-02T21:37:22.379Z,97603.00
2022-08-02T21:40:01.396Z,97597.75
2022-08-02T21:42:29.593Z,97595.63
2022-08-02T21:44:57.644Z,97594.44
2022-08-02T21:47:27.611Z,97590.19
2022-08-02T21:50:13.837Z,97586.97
2022-08-02T21:52:52.116Z,97589.09
2022-08-02T21:55:21.203Z,97586.97
2022-08-02T21:57:52.242Z,97593.19
2022-08-02T22:00:28.375Z,97584.06
2022-08-02T22:02:57.989Z,97587.56
2022-08-02T22:05:27.248Z,97589.03
2022-08-02T22:08:05.329Z,97594.38
2022-08-02T22:10:53.733Z,97599.19
2022-08-02T22:13:22.355Z,97595.97
2022-08-02T22:15:50.677Z,97601.56
2022-08-02T22:18:29.203Z,97600.53
2022-08-02T22:20:57.208Z,97605.41
2022-08-02T22:23:38.923Z,97602.41
2022-08-02T22:26:13.520Z,97611.13
2022-08-02T22:28:51.857Z,97613.47
2022-08-02T22:31:40.831Z,97619.34
2022-08-02T22:34:11.526Z,97624.06
2022-08-02T22:36:57.547Z,97622.44
2022-08-02T22:39:25.259Z,97628.25
2022-08-02T22:42:01.517Z,97628.66
2022-08-02T22:44:32.772Z,97626.03
2022-08-02T22:47:06.912Z,97617.47
2022-08-02T22:49:38.226Z,97623.31
2022-08-02T22:52:21.198Z,97624.97
2022-08-02T22:54:49.042Z,97628.06
2022-08-02T22:57:30.032Z,97634.50
2022-08-02T22:58:48.875Z,97536.66
2022-08-02T22:59:59.347Z,97625.41
2022-08-02T23:02:27.519Z,97622.97
2022-08-02T23:04:56.800Z,97623.31
2022-08-02T23:07:24.456Z,97628.31
2022-08-02T23:09:52.148Z,97626.88
2022-08-02T23:12:20.260Z,97625.44
2022-08-02T23:14:48.353Z,97622.94
2022-08-02T23:17:33.807Z,97627.09
2022-08-02T23:20:03.353Z,97622.13
2022-08-02T23:22:32.383Z,97625.84
2022-08-02T23:25:01.005Z,97619.25
2022-08-02T23:27:28.995Z,97625.03
2022-08-02T23:29:56.696Z,97629.19
2022-08-02T23:32:25.903Z,97636.44
2022-08-02T23:34:53.860Z,97635.25
2022-08-02T23:37:23.590Z,97631.66
2022-08-02T23:39:51.854Z,97635.59
2022-08-02T23:42:19.644Z,97631.25
2022-08-02T23:44:47.388Z,97632.53
2022-08-02T23:47:16.868Z,97634.59
2022-08-02T23:49:44.735Z,97631.72
2022-08-02T23:52:13.022Z,97637.09
2022-08-02T23:54:42.177Z,97631.53
2022-08-02T23:57:20.087Z,97629.06
2022-08-02T23:59:49.913Z,97635.25
